Time;durP1;ratioP1;P1;durP2;ratioP2;P2;SDS_P1;SDS_P2;PMS_P1;PMS_P2;Temp;Humidity;BMP_temperature;BMP_pressure;BME280_temperature;BME280_humidity;BME280_pressure;Samples;Min_cycle;Max_cycle;Signal;HPM_P1;HPM_P2
2023/09/13 00:01:55;;;;;;;;;;;;;;;;;;;;;
2023/09/13 00:05:37;;;;;;;32.10;26.20;;;;;;;18.74;63.33;100075.06;108289;1288;22782;-85
2023/09/13 00:09:00;;;;;;;31.10;27.70;;;;;;;18.71;63.42;100071.81;108132;1292;21997;-85
2023/09/13 00:12:13;;;;;;;;;;;;;;;;;;;;;
2023/09/13 00:16:22;;;;;;;;;;;;;;;;;;;;;
2023/09/13 00:19:30;;;;;;;30.40;26.50;;;;;;;18.65;63.78;100057.42;108824;1281;23619;-88
2023/09/13 00:22:53;;;;;;;;;;;;;;;;;;;;;
2023/09/13 00:27:07;;;;;;;;;;;;;;;;;;;;;
2023/09/13 00:30:16;;;;;;;;;;;;;;;;;;;;;
2023/09/13 00:33:25;;;;;;;33.30;26.90;;;;;;;18.56;64.07;100050.90;108236;1287;23871;-85
2023/09/13 00:36:27;;;;;;;37.90;30.00;;;;;;;18.55;64.15;100055.05;108343;1287;22040;-85
2023/09/13 00:39:30;;;;;;;30.50;27.40;;;;;;;18.53;64.22;100059.40;108499;1284;23061;-85
2023/09/13 00:42:50;;;;;;;32.10;28.90;;;;;;;18.54;64.31;100057.17;109258;1276;21988;-87
2023/09/13 00:47:15;;;;;;;34.00;30.60;;;;;;;18.56;64.29;100060.55;109838;1268;22077;-87
2023/09/13 00:55:00;;;;;;;32.00;28.70;;;;;;;18.62;64.02;100055.55;108800;1290;23021;-86
2023/09/13 00:58:48;;;;;;;;;;;;;;;;;;;;;
2023/09/13 01:02:08;;;;;;;30.50;27.40;;;;;;;18.67;63.91;100053.39;107896;1297;22777;-84
2023/09/13 01:05:49;;;;;;;29.60;26.40;;;;;;;18.69;63.79;100050.79;107836;1297;23033;-85
2023/09/13 01:09:18;;;;;;;;;;;;;;;;;;;;;
2023/09/13 01:23:47;;;;;;;30.00;26.90;;;;;;;19.86;60.61;100040.23;108608;1280;548438;-85
2023/09/13 01:28:12;;;;;;;;;;;;;;;;;;;;;
2023/09/13 01:32:03;;;;;;;30.30;27.20;;;;;;;19.08;61.52;100023.64;110778;1262;21988;-85
2023/09/13 01:35:56;;;;;;;31.40;27.40;;;;;;;18.91;61.98;100044.00;110032;1270;21990;-83
2023/09/13 01:39:35;;;;;;;29.80;26.50;;;;;;;18.63;62.61;100044.22;109603;1273;23071;-85
2023/09/13 01:43:02;;;;;;;31.90;28.60;;;;;;;18.44;63.27;100044.56;109303;1277;22155;-84
2023/09/13 01:50:11;;;;;;;;;;;;;;;;;;;;;
2023/09/13 01:53:22;;;;;;;34.80;30.10;;;;;;;18.16;64.23;100044.39;108789;1284;23801;-84
2023/09/13 01:56:16;;;;;;;33.70;27.80;;;;;;;18.16;64.26;100040.85;108572;1284;21993;-88
2023/09/13 01:59:04;;;;;;;;;;;;;;;18.13;64.43;100037.23;108754;1280;22082;-87
2023/09/13 02:01:54;;;;;;;32.60;29.20;;;;;;;18.04;64.92;100037.55;109302;1276;21984;-85
2023/09/13 02:04:52;;;;;;;33.20;29.60;;;;;;;18.02;64.83;100037.37;109497;1273;23216;-86
2023/09/13 02:07:30;;;;;;;33.80;30.30;;;;;;;18.00;64.78;100031.50;109802;1268;22191;-87
2023/09/13 02:10:15;;;;;;;33.30;30.00;;;;;;;18.01;64.81;100029.26;110612;1254;21960;-86
2023/09/13 02:13:23;;;;;;;33.20;29.70;;;;;;;18.02;65.18;100023.60;111728;1254;21981;-85
2023/09/13 02:20:24;;;;;;;33.50;30.00;;;;;;;17.97;64.95;100019.39;110447;1265;21964;-84
2023/09/13 02:22:58;;;;;;;32.10;28.90;;;;;;;17.90;64.99;100017.98;110299;1265;21985;-83
2023/09/13 02:25:42;;;;;;;34.30;29.80;;;;;;;17.86;65.06;100022.13;110060;1265;21986;-83
2023/09/13 02:28:32;;;;;;;35.90;31.40;;;;;;;17.77;65.17;100024.14;110048;1265;22978;-83
2023/09/13 02:32:21;;;;;;;33.80;30.30;;;;;;;17.68;65.47;100024.13;110150;1265;22037;-84
2023/09/13 02:37:09;;;;;;;33.00;29.30;;;;;;;17.53;65.89;100021.49;109628;1274;21945;-86
2023/09/13 02:40:05;;;;;;;;;;;;;;;;;;;;;
2023/09/13 02:43:52;;;;;;;;;;;;;;;;;;;;;
2023/09/13 02:48:15;;;;;;;34.80;31.20;;;;;;;17.40;66.60;100007.14;109158;1279;22192;-85
2023/09/13 02:54:54;;;;;;;;;;;;;;;;;;;;;
2023/09/13 02:58:44;;;;;;;36.60;32.30;;;;;;;17.43;66.88;100003.77;108471;1287;23603;-86
2023/09/13 03:06:17;;;;;;;;;;;;;;;;;;;;;
2023/09/13 03:20:17;;;;;;;34.90;31.30;;;;;;;18.35;64.30;100015.48;110706;1255;548228;-83
2023/09/13 03:23:00;;;;;;;36.30;32.70;;;;;;;18.45;63.55;100010.48;109564;1246;2982703;-83
2023/09/13 03:26:34;;;;;;;35.90;32.30;;;;;;;17.94;64.76;100006.35;112409;1245;21957;-82
2023/09/13 03:29:23;;;;;;;35.10;31.50;;;;;;;17.73;65.73;100003.49;112102;1245;23693;-83
2023/09/13 03:32:06;;;;;;;34.60;31.40;;;;;;;17.65;66.30;99999.00;112188;1245;21957;-82
2023/09/13 03:34:53;;;;;;;36.20;32.30;;;;;;;17.60;66.36;99996.36;111503;1250;23805;-82
2023/09/13 03:37:35;;;;;;;38.20;32.60;;;;;;;17.53;66.54;99992.66;110918;1253;22282;-84
2023/09/13 03:40:56;;;;;;;;;;;;;;;17.43;66.70;99987.55;111096;1258;22715;-84
2023/09/13 03:43:46;;;;;;;36.40;31.20;;;;;;;17.28;67.34;99985.46;111446;1251;22015;-82
2023/09/13 03:46:38;;;;;;;37.00;33.60;;;;;;;17.25;67.40;99987.30;111846;1251;21987;-84
2023/09/13 03:49:14;;;;;;;37.60;34.20;;;;;;;17.23;67.36;99988.95;111638;1251;21995;-84
2023/09/13 03:51:51;;;;;;;40.10;36.20;;;;;;;17.18;67.66;99990.38;111335;1251;23804;-82
2023/09/13 03:54:32;;;;;;;39.80;35.80;;;;;;;17.17;67.87;99982.38;112171;1244;23022;-84
2023/09/13 03:57:08;;;;;;;42.30;36.10;;;;;;;17.14;68.14;99983.45;112626;1239;22417;-83
2023/09/13 03:59:45;;;;;;;40.10;36.30;;;;;;;17.09;68.39;99986.41;113232;1235;21969;-83
2023/09/13 04:02:19;;;;;;;37.70;33.70;;;;;;;17.10;68.65;99984.80;112935;1239;23042;-84
2023/09/13 04:05:06;;;;;;;38.50;34.80;;;;;;;17.11;68.70;99983.50;112857;1239;23613;-83
2023/09/13 04:07:42;;;;;;;38.60;34.70;;;;;;;17.12;68.65;99978.52;112721;1239;21976;-84
2023/09/13 04:10:12;;;;;;;41.90;37.50;;;;;;;17.14;68.59;99977.48;112993;1234;21932;-82
2023/09/13 04:12:46;;;;;;;38.50;35.10;;;;;;;17.11;68.70;99976.45;113453;1234;22013;-85
2023/09/13 04:15:26;;;;;;;41.30;37.00;;;;;;;17.08;68.55;99979.28;112978;1239;24285;-85
2023/09/13 04:18:06;;;;;;;40.10;36.30;;;;;;;17.06;68.68;99982.61;112915;1239;24273;-85
2023/09/13 04:21:04;;;;;;;40.20;35.90;;;;;;;17.05;68.69;99984.80;112610;1246;21984;-81
2023/09/13 04:23:51;;;;;;;38.80;35.30;;;;;;;17.04;68.97;99984.34;112339;1246;21943;-86
2023/09/13 04:26:38;;;;;;;40.70;36.60;;;;;;;17.01;68.95;99975.92;112096;1246;23644;-85
2023/09/13 04:29:55;;;;;;;39.20;35.40;;;;;;;17.05;69.02;99978.25;112312;1245;21957;-82
2023/09/13 04:34:03;;;;;;;41.50;36.30;;;;;;;17.15;68.96;99988.13;112415;1242;23831;-82
2023/09/13 04:37:09;;;;;;;42.70;38.50;;;;;;;17.17;68.97;99987.42;112120;1248;21986;-83
2023/09/13 04:39:53;;;;;;;39.80;36.10;;;;;;;17.24;68.81;99986.97;112122;1247;22694;-81
2023/09/13 04:42:46;;;;;;;40.90;36.50;;;;;;;17.29;68.69;99985.73;111992;1247;21971;-84
2023/09/13 05:04:59;;;;;;;36.50;33.30;;;;;;;18.79;63.05;99975.27;109291;1251;3109288;-82
2023/09/13 05:07:46;;;;;;;36.70;33.50;;;;;;;18.38;64.12;99983.59;111856;1251;21978;-82
2023/09/13 05:11:14;;;;;;;37.30;33.80;;;;;;;18.18;64.87;99991.77;111368;1255;22111;-81
2023/09/13 05:14:36;;;;;;;36.00;32.80;;;;;;;18.03;65.62;99988.98;110215;1267;22961;-83
2023/09/13 05:17:30;;;;;;;38.30;34.70;;;;;;;18.02;66.05;99988.92;110159;1267;24338;-84
2023/09/13 05:20:51;;;;;;;38.70;35.10;;;;;;;18.04;66.21;99992.84;110018;1267;23076;-82
2023/09/13 05:23:49;;;;;;;41.20;37.20;;;;;;;18.08;66.56;99993.60;111262;1256;23642;-82
2023/09/13 05:27:09;;;;;;;;;;;;;;;;;;;;;
2023/09/13 05:30:44;;;;;;;37.80;34.10;;;;;;;18.19;66.66;100001.02;111180;1257;21985;-83
2023/09/13 05:34:08;;;;;;;;;;;;;;;;;;;;;
2023/09/13 05:37:26;;;;;;;;;;;;;;;;;;;;;
2023/09/13 05:40:15;;;;;;;36.70;32.80;;;;;;;18.48;66.49;100004.41;111031;1254;22296;-83
2023/09/13 05:45:54;;;;;;;;;;;;;;;;;;;;;
2023/09/13 05:49:45;;;;;;;;;;;;;;;;;;;;;
2023/09/13 05:52:40;;;;;;;;;;;;;;;;;;;;;
2023/09/13 05:58:51;;;;;;;35.90;32.60;;;;;;;18.98;65.98;99994.08;108608;1283;22021;-86
2023/09/13 06:12:37;;;;;;;33.30;29.60;;;;;;;20.70;61.00;99998.67;108441;1286;548269;-79
2023/09/13 06:15:15;;;;;;;34.50;31.20;;;;;;;21.31;59.24;100010.33;104500;1273;6459842;-81
2023/09/13 06:18:17;;;;;;;33.60;30.50;;;;;;;21.12;59.96;100009.33;108748;1281;23050;-83
2023/09/13 06:21:15;;;;;;;33.30;29.90;;;;;;;21.12;60.60;100014.65;108889;1281;21992;-81
2023/09/13 06:24:00;;;;;;;32.00;28.90;;;;;;;21.26;60.93;100014.70;109466;1274;23735;-85
2023/09/13 06:27:01;;;;;;;32.00;29.20;;;;;;;21.43;60.78;100011.92;109449;1274;21984;-82
2023/09/13 06:29:57;;;;;;;32.20;28.90;;;;;;;21.65;60.40;100015.12;109059;1278;22083;-84
2023/09/13 06:33:00;;;;;;;30.50;27.60;;;;;;;21.87;59.68;100012.98;109135;1273;22071;-82
2023/09/13 06:35:45;;;;;;;34.10;28.40;;;;;;;22.11;59.49;100014.48;109964;1265;22741;-82
2023/09/13 06:38:38;;;;;;;32.60;29.10;;;;;;;22.38;59.37;100014.90;110242;1265;23583;-82
2023/09/13 06:41:14;;;;;;;30.10;27.00;;;;;;;22.70;59.28;100009.09;110080;1264;23039;-84
2023/09/13 06:43:53;;;;;;;30.40;27.30;;;;;;;23.14;58.36;100011.16;110014;1265;23120;-84
2023/09/13 06:46:54;;;;;;;30.10;25.80;;;;;;;23.54;57.56;100004.41;110389;1265;23723;-86
2023/09/13 06:49:52;;;;;;;28.80;26.10;;;;;;;23.87;56.02;100005.79;111038;1259;22734;-84
2023/09/13 06:52:54;;;;;;;28.80;25.90;;;;;;;24.25;55.41;100007.91;111145;1259;22898;-83
2023/09/13 06:56:12;;;;;;;;;;;;;;;;;;;;;
2023/09/13 06:59:06;;;;;;;27.10;24.70;;;;;;;25.02;54.24;100003.04;111237;1259;21983;-83
2023/09/13 07:02:23;;;;;;;26.90;24.30;;;;;;;25.40;53.28;99995.45;110573;1265;22075;-84
2023/09/13 07:05:25;;;;;;;27.60;24.50;;;;;;;25.80;52.14;99991.34;110914;1262;21965;-84
2023/09/13 07:08:20;;;;;;;27.20;24.40;;;;;;;26.15;51.62;99996.27;110883;1261;21963;-83
2023/09/13 07:11:05;;;;;;;27.70;24.30;;;;;;;26.55;50.77;99997.06;110567;1262;21993;-85
2023/09/13 07:13:53;;;;;;;26.00;23.30;;;;;;;26.80;49.19;99994.54;110820;1262;21983;-85
2023/09/13 07:16:37;;;;;;;;;;;;;;;26.97;48.68;99994.34;110994;1262;21953;-84
2023/09/13 07:20:05;;;;;;;28.80;24.90;;;;;;;27.06;48.43;99995.48;110877;1260;23109;-84
2023/09/13 07:23:19;;;;;;;;;;;;;;;;;;;;;
2023/09/13 07:26:25;;;;;;;;;;;;;;;;;;;;;
2023/09/13 07:29:18;;;;;;;25.70;23.10;;;;;;;27.82;47.50;100007.83;111159;1260;22482;-83
2023/09/13 07:32:33;;;;;;;28.90;23.80;;;;;;;28.15;46.67;100011.48;110590;1258;21992;-84
2023/09/13 07:35:20;;;;;;;;;;;;;;;;;;;;;
2023/09/13 07:38:25;;;;;;;28.50;23.10;;;;;;;28.72;45.69;100010.86;110596;1265;21978;-83
2023/09/13 07:41:19;;;;;;;21.70;19.50;;;;;;;29.03;44.82;100006.34;110363;1265;23736;-87
2023/09/13 07:44:09;;;;;;;24.30;21.30;;;;;;;29.30;44.36;100008.43;109986;1270;22240;-83
2023/09/13 07:47:08;;;;;;;33.00;20.70;;;;;;;29.61;43.62;100008.38;110236;1269;22004;-84
2023/09/13 07:50:02;;;;;;;25.10;18.90;;;;;;;29.95;43.30;100004.55;109714;1269;22839;-83
2023/09/13 07:52:53;;;;;;;19.70;17.60;;;;;;;30.24;41.95;100004.27;110358;1261;24315;-84
2023/09/13 07:56:10;;;;;;;23.50;18.90;;;;;;;30.61;41.83;99996.27;110348;1268;21997;-84
2023/09/13 07:59:29;;;;;;;18.90;16.80;;;;;;;30.92;40.41;99992.63;109962;1268;22741;-82
2023/09/13 08:02:09;;;;;;;21.20;16.70;;;;;;;31.09;39.95;99996.50;110389;1261;22008;-85
2023/09/13 08:05:07;;;;;;;17.80;16.20;;;;;;;31.28;39.48;99996.14;110858;1262;23676;-83
2023/09/13 08:08:22;;;;;;;20.20;16.50;;;;;;;31.52;39.00;99998.56;110613;1261;21982;-85
2023/09/13 08:11:08;;;;;;;20.40;15.30;;;;;;;31.76;38.48;99997.23;110561;1262;22995;-82
2023/09/13 08:15:10;;;;;;;21.70;16.30;;;;;;;31.85;38.14;99998.33;110750;1262;22835;-82
2023/09/13 08:19:14;;;;;;;;;;;;;;;;;;;;;
2023/09/13 08:23:48;;;;;;;16.70;14.10;;;;;;;32.37;38.56;100019.95;109617;1273;22197;-84
2023/09/13 08:32:18;;;;;;;24.90;14.70;;;;;;;32.54;37.03;100027.77;109516;1275;22000;-84
2023/09/13 08:36:04;;;;;;;;;;;;;;;;;;;;;
2023/09/13 08:50:19;;;;;;;;;;;;;;;;;;;;;
2023/09/13 09:05:54;;;;;;;;;;;;;;;;;;;;;
2023/09/13 09:09:31;;;;;;;13.30;8.10;;;;;;;33.44;32.36;100020.75;106820;1261;22074;-81
2023/09/13 09:37:06;;;;;;;13.90;9.70;;;;;;;34.23;32.41;100002.45;110638;1256;548008;-82
2023/09/13 09:49:47;;;;;;;;;;;;;;;;;;;;;
2023/09/13 09:53:19;;;;;;;;;;;;;;;;;;;;;
2023/09/13 09:57:11;;;;;;;;;;;;;;;;;;;;;
2023/09/13 10:00:23;;;;;;;23.20;11.60;;;;;;;33.61;33.57;99982.87;110409;1267;23697;-82
2023/09/13 10:03:27;;;;;;;;;;;;;;;;;;;;;
2023/09/13 10:07:23;;;;;;;;;;;;;;;;;;;;;
2023/09/13 10:10:59;;;;;;;14.40;9.20;;;;;;;33.66;32.66;99980.77;109030;1279;23628;-81
2023/09/13 10:14:27;;;;;;;12.90;7.60;;;;;;;33.64;32.66;99976.12;109011;1279;22009;-80
2023/09/13 10:17:21;;;;;;;10.80;8.70;;;;;;;33.71;32.54;99966.13;109105;1272;22524;-83
2023/09/13 10:20:23;;;;;;;12.60;9.10;;;;;;;33.82;31.98;99959.93;109112;1276;21987;-82
2023/09/13 10:23:08;;;;;;;14.30;8.20;;;;;;;33.74;31.36;99954.31;109388;1276;23074;-81
2023/09/13 10:25:59;;;;;;;11.40;7.60;;;;;;;33.52;31.81;99952.11;109458;1276;21990;-83
2023/09/13 10:31:15;;;;;;;;;;;;;;;;;;;;;
2023/09/13 10:44:43;;;;;;;12.50;8.90;;;;;;;34.60;30.19;99964.38;108691;1282;548075;-82
2023/09/13 10:47:53;;;;;;;16.70;8.20;;;;;;;34.55;29.45;99960.52;106220;1267;5400771;-84
2023/09/13 10:51:25;;;;;;;12.40;8.30;;;;;;;34.00;30.19;99962.32;110215;1268;23716;-90
2023/09/13 10:55:17;;;;;;;9.80;7.80;;;;;;;33.63;30.92;99970.54;110385;1268;22008;-85
2023/09/13 10:59:02;;;;;;;11.30;7.80;;;;;;;33.17;31.53;99974.31;109590;1273;23676;-87
2023/09/13 11:02:53;;;;;;;13.90;8.10;;;;;;;32.87;32.29;99975.91;108923;1280;21989;-87
2023/09/13 11:06:14;;;;;;;10.50;8.70;;;;;;;32.61;32.55;99982.05;108760;1287;22921;-87
2023/09/13 11:09:43;;;;;;;11.20;9.00;;;;;;;32.45;32.87;99984.15;108477;1287;24928;-81
2023/09/13 11:12:14;;;;;;;13.10;9.30;;;;;;;32.28;33.28;99983.66;107872;1294;22009;-86
2023/09/13 11:14:53;;;;;;;12.20;9.10;;;;;;;32.19;33.63;99987.75;108025;1292;23691;-87
2023/09/13 11:17:44;;;;;;;10.00;8.90;;;;;;;32.09;33.76;99983.67;108065;1295;23004;-86
2023/09/13 11:21:14;;;;;;;18.40;9.70;;;;;;;31.98;34.04;99978.83;108093;1294;22589;-89
2023/09/13 11:23:56;;;;;;;11.30;9.90;;;;;;;31.81;34.41;99980.52;108612;1288;22497;-90
2023/09/13 11:26:57;;;;;;;13.50;9.80;;;;;;;31.72;34.47;99979.10;108557;1288;23739;-86
2023/09/13 11:30:18;;;;;;;13.40;9.40;;;;;;;31.59;34.73;99981.23;109141;1283;22482;-88
2023/09/13 11:33:12;;;;;;;11.20;9.60;;;;;;;31.47;35.21;99984.91;109769;1275;21992;-86
2023/09/13 11:36:11;;;;;;;10.80;9.10;;;;;;;31.37;35.31;99996.64;109365;1275;21973;-84
2023/09/13 11:39:28;;;;;;;15.40;10.30;;;;;;;31.26;35.24;100011.52;109766;1270;21942;-85
2023/09/13 11:43:01;;;;;;;22.50;7.90;;;;;;;30.98;35.53;100012.10;110182;1263;23752;-88
2023/09/13 11:46:33;;;;;;;;;;;;;;;;;;;;;
2023/09/13 12:08:37;;;;;;;15.10;8.40;;;;;;;30.33;39.58;100002.65;108811;1279;548226;-90
2023/09/13 12:12:24;;;;;;;;;;;;;;;;;;;;;
2023/09/13 12:16:56;;;;;;;15.90;8.10;;;;;;;29.88;40.64;100003.91;109371;1278;24004;-88
2023/09/13 12:21:00;;;;;;;18.30;8.50;;;;;;;29.60;40.58;99996.37;108831;1284;23761;-90
2023/09/13 12:25:04;;;;;;;;;;;;;;;;;;;;;
2023/09/13 12:29:51;;;;;;;;;;;;;;;;;;;;;
2023/09/13 12:33:36;;;;;;;12.60;8.30;;;;;;;29.18;42.36;99970.10;108623;1290;21968;-88
2023/09/13 12:37:05;;;;;;;16.60;8.10;;;;;;;29.09;42.50;99961.86;107819;1298;24430;-88
2023/09/13 12:41:00;;;;;;;13.70;8.60;;;;;;;28.93;42.74;99951.13;107357;1303;22030;-90
2023/09/13 12:45:13;;;;;;;6.20;5.60;;;;;;;28.88;43.10;99948.53;106361;1313;22026;-88
2023/09/13 13:00:08;;;;;;;;;;;;;;;;;;;;;
2023/09/13 13:04:18;;;;;;;17.30;9.90;;;;;;;29.79;41.47;99951.36;107289;1234;24262;-89
2023/09/13 13:07:53;;;;;;;23.70;9.00;;;;;;;29.54;41.89;99955.48;113966;1230;21963;-88
2023/09/13 13:11:31;;;;;;;13.70;7.60;;;;;;;29.47;42.02;99954.95;114079;1233;21950;-89
2023/09/13 13:15:11;;;;;;;14.40;9.60;;;;;;;29.45;42.37;99955.42;113326;1239;21973;-87
2023/09/13 13:18:33;;;;;;;14.60;9.80;;;;;;;29.46;42.32;99950.92;113202;1239;22153;-88
2023/09/13 13:22:07;;;;;;;14.70;9.10;;;;;;;29.48;42.10;99945.65;112947;1239;23570;-87
2023/09/13 13:25:56;;;;;;;;;;;;;;;;;;;;;
2023/09/13 13:28:53;;;;;;;11.50;8.80;;;;;;;29.57;41.97;99942.15;112698;1243;21968;-87
2023/09/13 13:32:00;;;;;;;19.30;8.20;;;;;;;29.60;41.72;99943.46;112584;1243;21972;-82
2023/09/13 13:35:37;;;;;;;20.20;8.30;;;;;;;29.56;41.91;99938.38;111627;1253;21973;-86
2023/09/13 13:39:39;;;;;;;;;;;;;;;;;;;;;
2023/09/13 13:42:54;;;;;;;13.40;7.60;;;;;;;29.43;42.30;99927.69;111272;1258;22029;-85
2023/09/13 13:46:01;;;;;;;18.90;8.80;;;;;;;29.36;42.59;99924.80;111394;1258;22702;-87
2023/09/13 13:49:40;;;;;;;;;;;;;;;;;;;;;
2023/09/13 13:57:16;;;;;;;24.70;9.10;;;;;;;29.14;43.04;99919.20;114222;1232;23719;-85
2023/09/13 14:01:05;;;;;;;14.40;10.10;;;;;;;29.16;42.72;99930.47;113878;1238;21955;-82
2023/09/13 14:03:46;;;;;;;;;;;;;;;;;;;;;
2023/09/13 14:07:34;;;;;;;;;;;;;;;;;;;;;
2023/09/13 14:11:09;;;;;;;12.20;7.10;;;;;;;29.13;42.92;99948.94;112774;1242;23102;-87
2023/09/13 14:13:58;;;;;;;16.60;6.90;;;;;;;29.13;42.81;99956.66;112376;1242;21956;-84
2023/09/13 14:16:48;;;;;;;10.50;5.90;;;;;;;29.12;42.69;99957.31;112492;1243;23686;-86
2023/09/13 14:19:43;;;;;;;11.30;5.80;;;;;;;29.05;42.08;99958.42;112196;1248;23181;-85
2023/09/13 14:22:42;;;;;;;13.40;4.90;;;;;;;28.92;41.67;99962.20;111819;1252;21968;-84
2023/09/13 14:25:19;;;;;;;9.70;4.90;;;;;;;28.80;41.39;99971.66;111608;1256;21980;-85
2023/09/13 14:28:31;;;;;;;13.00;5.80;;;;;;;28.70;41.45;99975.48;111577;1256;21965;-84
2023/09/13 14:35:25;;;;;;;6.80;6.00;;;;;;;28.15;42.55;99986.27;111828;1250;21922;-83
2023/09/13 14:39:50;;;;;;;8.90;7.10;;;;;;;27.83;43.00;99990.45;112459;1246;21941;-84
2023/09/13 14:43:18;;;;;;;9.30;7.70;;;;;;;27.49;43.55;99997.41;112214;1243;21954;-83
2023/09/13 14:46:59;;;;;;;;;;;;;;;;;;;;;
2023/09/13 14:50:02;;;;;;;21.30;8.80;;;;;;;27.05;44.31;100014.74;111342;1257;23105;-84
2023/09/13 14:58:58;;;;;;;;;;;;;;;;;;;;;
2023/09/13 15:02:38;;;;;;;8.60;7.80;;;;;;;26.63;45.65;100008.56;109632;1271;24433;-84
2023/09/13 15:06:15;;;;;;;;;;;;;;;;;;;;;
2023/09/13 15:14:06;;;;;;;8.90;8.00;;;;;;;26.55;46.68;100004.16;109745;1273;23030;-85
2023/09/13 15:23:32;;;;;;;6.40;4.60;;;;;;;26.57;45.43;100012.09;110159;1264;22062;-83
2023/09/13 15:26:10;;;;;;;9.90;6.40;;;;;;;26.46;45.21;100017.88;110430;1264;22834;-83
2023/09/13 15:28:59;;;;;;;9.70;6.50;;;;;;;26.40;45.27;100019.46;110441;1264;23724;-83
2023/09/13 15:31:49;;;;;;;8.30;5.50;;;;;;;26.35;45.62;100014.14;110373;1264;22131;-84
2023/09/13 15:34:42;;;;;;;8.30;5.60;;;;;;;26.22;45.82;100003.04;111112;1252;22022;-84
2023/09/13 15:37:26;;;;;;;10.00;6.00;;;;;;;26.13;45.99;100007.55;111539;1252;21985;-85
2023/09/13 15:40:22;;;;;;;9.40;6.90;;;;;;;26.01;46.33;100012.39;111547;1252;23028;-83
2023/09/13 15:42:58;;;;;;;14.60;6.40;;;;;;;25.91;46.66;100024.02;111415;1252;21960;-83
2023/09/13 15:45:39;;;;;;;11.00;6.80;;;;;;;25.87;46.93;100039.98;111382;1252;21964;-86
2023/09/13 15:48:24;;;;;;;10.40;7.20;;;;;;;25.80;47.25;100055.30;111523;1252;22075;-84
2023/09/13 15:51:37;;;;;;;6.80;6.00;;;;;;;25.70;47.44;100079.16;112581;1237;23613;-83
2023/09/13 15:55:03;;;;;;;25.30;8.80;;;;;;;25.59;47.80;100095.13;112850;1237;22410;-82
2023/09/13 15:58:32;;;;;;;18.60;10.10;;;;;;;25.19;49.33;100076.09;113243;1237;23107;-81
2023/09/13 16:02:31;;;;;;;20.70;12.30;;;;;;;24.60;51.81;100050.65;112996;1238;22053;-84
2023/09/13 16:06:30;;;;;;;;;;;;;;;;;;;;;
2023/09/13 16:20:36;;;;;;;14.10;12.50;;;;;;;23.84;59.57;100044.02;108841;1280;23709;-83
2023/09/13 16:23:17;;;;;;;20.20;15.60;;;;;;;23.93;60.46;100042.70;109148;1273;23031;-82
2023/09/13 16:25:47;;;;;;;19.40;14.20;;;;;;;24.04;61.02;100044.10;109325;1273;22329;-83
2023/09/13 16:28:29;;;;;;;20.60;15.20;;;;;;;24.15;61.64;100040.40;109365;1273;21979;-84
2023/09/13 16:31:05;;;;;;;16.10;14.50;;;;;;;24.22;61.91;100048.95;109233;1273;22738;-83
2023/09/13 16:33:46;;;;;;;17.40;14.80;;;;;;;24.27;62.35;100053.04;109319;1273;23754;-84
2023/09/13 16:36:25;;;;;;;17.60;14.10;;;;;;;24.28;62.61;100055.77;109357;1272;21984;-84
2023/09/13 16:38:53;;;;;;;99.70;21.10;;;;;;;24.31;62.97;100057.44;109381;1273;21983;-80
2023/09/13 16:41:25;;;;;;;17.40;14.80;;;;;;;24.34;63.32;100056.39;109253;1268;21995;-83
2023/09/13 16:43:55;;;;;;;15.20;13.70;;;;;;;24.39;63.43;100060.73;110227;1263;22043;-85
2023/09/13 16:46:42;;;;;;;15.60;14.10;;;;;;;24.38;63.35;100056.92;110833;1258;23639;-83
2023/09/13 16:49:24;;;;;;;16.60;14.90;;;;;;;24.36;63.37;100058.91;110892;1258;23639;-85
2023/09/13 16:52:18;;;;;;;19.80;13.90;;;;;;;24.26;63.28;100058.84;111779;1252;22145;-83
2023/09/13 16:54:55;;;;;;;17.50;15.30;;;;;;;24.17;63.25;100058.16;111279;1252;22011;-85
2023/09/13 16:57:24;;;;;;;18.30;15.50;;;;;;;24.09;63.31;100059.32;112241;1237;21955;-83
2023/09/13 16:59:54;;;;;;;21.50;17.00;;;;;;;24.00;63.40;100061.73;112993;1237;21962;-82
2023/09/13 17:02:25;;;;;;;18.10;15.70;;;;;;;23.93;63.58;100069.80;113079;1237;21959;-86
2023/09/13 17:05:11;;;;;;;19.30;14.60;;;;;;;23.79;63.89;100075.90;113441;1237;23018;-84
2023/09/13 17:08:03;;;;;;;16.90;15.10;;;;;;;23.67;64.23;100080.97;113112;1237;23005;-85
2023/09/13 17:11:02;;;;;;;;;;;;;;;;;;;;;
2023/09/13 17:13:40;;;;;;;19.40;15.80;;;;;;;23.53;65.21;100094.34;113283;1237;21952;-84
2023/09/13 17:16:29;;;;;;;17.20;15.30;;;;;;;23.54;65.47;100097.66;113412;1237;22536;-83
2023/09/13 17:19:10;;;;;;;19.10;17.10;;;;;;;23.52;65.64;100098.71;113494;1238;23614;-84
2023/09/13 17:21:58;;;;;;;19.20;16.70;;;;;;;23.46;65.97;100097.54;113317;1237;21954;-83
2023/09/13 17:24:39;;;;;;;20.30;17.50;;;;;;;23.42;66.24;100097.25;113063;1237;22014;-83
2023/09/13 17:27:10;;;;;;;21.10;18.20;;;;;;;23.37;66.32;100096.79;112626;1242;23731;-83
2023/09/13 17:29:42;;;;;;;23.20;17.40;;;;;;;23.33;66.45;100097.18;112429;1242;23693;-83
2023/09/13 17:32:18;;;;;;;20.00;18.00;;;;;;;23.28;66.75;100100.88;112804;1242;21977;-83
2023/09/13 17:34:53;;;;;;;20.20;18.10;;;;;;;23.24;67.02;100101.28;112528;1242;21976;-79
2023/09/13 17:37:27;;;;;;;23.60;21.20;;;;;;;23.19;67.27;100101.04;112913;1242;23682;-81
2023/09/13 17:40:08;;;;;;;20.80;18.30;;;;;;;23.13;67.43;100102.43;112833;1242;21942;-83
2023/09/13 17:42:48;;;;;;;20.60;18.50;;;;;;;23.08;67.66;100104.52;112754;1242;23033;-83
2023/09/13 17:45:20;;;;;;;21.70;19.60;;;;;;;23.04;67.81;100104.22;112884;1237;22102;-84
2023/09/13 17:47:57;;;;;;;21.50;19.30;;;;;;;22.99;68.05;100105.86;113155;1237;21920;-85
2023/09/13 17:50:33;;;;;;;21.00;19.10;;;;;;;22.96;68.24;100104.95;113041;1237;21942;-83
2023/09/13 17:53:39;;;;;;;29.70;27.10;;;;;;;22.91;68.41;100108.25;112647;1242;21970;-83
2023/09/13 17:56:38;;;;;;;;;;;;;;;;;;;;;
2023/09/13 18:00:02;;;;;;;22.30;20.10;;;;;;;22.67;68.71;100115.23;112163;1249;23703;-85
2023/09/13 18:02:32;;;;;;;21.70;19.70;;;;;;;22.67;68.61;100128.16;111748;1241;22917;-84
2023/09/13 18:05:34;;;;;;;23.10;19.60;;;;;;;22.65;68.62;100136.02;111758;1250;22023;-86
2023/09/13 18:08:28;;;;;;;24.30;21.90;;;;;;;22.57;69.00;100144.89;111786;1250;22168;-83
2023/09/13 18:11:47;;;;;;;23.00;20.80;;;;;;;22.52;69.28;100151.58;111499;1253;21965;-80
2023/09/13 18:14:51;;;;;;;22.90;20.90;;;;;;;22.43;69.49;100160.31;111659;1250;23060;-80
2023/09/13 18:17:49;;;;;;;20.70;18.80;;;;;;;22.38;69.33;100169.86;111873;1246;21964;-84
2023/09/13 18:20:50;;;;;;;19.90;18.00;;;;;;;22.34;69.51;100182.39;112207;1246;21933;-85
2023/09/13 18:23:59;;;;;;;;;;;;;;;;;;;;;
2023/09/13 18:27:17;;;;;;;17.10;15.80;;;;;;;22.28;68.98;100197.33;111712;1251;21970;-83
2023/09/13 18:30:17;;;;;;;17.50;15.90;;;;;;;22.28;68.73;100209.22;111886;1247;21950;-82
2023/09/13 18:34:26;;;;;;;17.80;16.30;;;;;;;22.24;68.74;100218.05;112309;1247;23046;-81
2023/09/13 18:37:58;;;;;;;16.30;14.80;;;;;;;22.23;68.54;100222.00;112434;1247;21938;-84
2023/09/13 18:41:47;;;;;;;13.70;12.40;;;;;;;22.20;68.45;100221.34;111961;1249;22051;-83
2023/09/13 18:45:10;;;;;;;14.90;13.70;;;;;;;22.17;68.45;100226.79;112076;1249;23020;-81
2023/09/13 18:48:46;;;;;;;15.10;13.50;;;;;;;22.19;68.22;100226.97;112458;1249;21976;-84
2023/09/13 18:52:01;;;;;;;;;;;;;;;;;;;;;
2023/09/13 18:55:08;;;;;;;12.20;11.10;;;;;;;22.14;68.22;100232.20;112173;1251;23696;-82
2023/09/13 18:59:02;;;;;;;12.50;11.20;;;;;;;22.15;68.04;100229.41;111999;1251;21957;-82
2023/09/13 19:03:49;;;;;;;;;;;;;;;;;;;;;
2023/09/13 19:07:36;;;;;;;9.30;8.40;;;;;;;22.01;67.84;100221.46;111390;1260;21982;-87
2023/09/13 19:11:00;;;;;;;8.20;7.00;;;;;;;21.99;67.61;100220.17;111291;1262;21961;-83
2023/09/13 19:14:15;;;;;;;8.80;7.10;;;;;;;21.95;67.59;100213.30;110557;1262;23053;-81
2023/09/13 19:17:31;;;;;;;9.20;6.30;;;;;;;21.94;67.55;100215.73;110653;1262;22519;-81
2023/09/13 19:20:31;;;;;;;6.90;6.20;;;;;;;21.91;67.47;100214.52;111067;1253;23606;-83
2023/09/13 19:23:35;;;;;;;8.20;6.40;;;;;;;21.90;67.25;100211.66;111481;1253;25466;-82
2023/09/13 19:26:25;;;;;;;7.70;5.80;;;;;;;21.89;66.94;100212.44;111366;1253;22180;-83
2023/09/13 19:29:39;;;;;;;6.30;5.00;;;;;;;21.84;66.86;100210.94;111547;1253;21920;-85
2023/09/13 19:38:22;;;;;;;8.00;5.10;;;;;;;21.67;66.51;100207.58;110893;1259;22294;-83